createdAt,value
2019-04-05T00:00:43.396Z,109.03
2019-04-05T00:03:12.190Z,109.12
2019-04-05T00:05:41.037Z,108.78
2019-04-05T00:08:09.946Z,100.07
2019-04-05T00:10:38.861Z,105.85
2019-04-05T00:13:08.125Z,114.60
2019-04-05T00:15:38.138Z,107.95
2019-04-05T00:18:08.090Z,118.13
2019-04-05T00:20:36.909Z,104.60
2019-04-05T00:23:05.869Z,110.50
2019-04-05T00:25:34.764Z,123.92
2019-04-05T00:28:03.637Z,116.97
2019-04-05T00:30:32.431Z,107.00
2019-04-05T00:33:01.249Z,107.90
2019-04-05T00:35:30.068Z,107.92
2019-04-05T00:37:58.856Z,108.52
2019-04-05T00:40:27.862Z,119.02
2019-04-05T00:42:56.699Z,121.37
2019-04-05T00:45:28.416Z,121.20
2019-04-05T00:47:56.114Z,131.20
2019-04-05T00:50:25.062Z,122.78
2019-04-05T00:52:54.016Z,135.25
2019-04-05T00:55:22.954Z,129.40
2019-04-05T00:57:51.906Z,123.50
2019-04-05T01:00:20.873Z,125.53
2019-04-05T01:02:49.663Z,120.00
2019-04-05T01:05:18.529Z,128.32
2019-04-05T01:07:47.501Z,127.15
2019-04-05T01:10:16.850Z,127.35
2019-04-05T01:12:46.474Z,125.00
2019-04-05T01:15:16.758Z,128.95
2019-04-05T01:17:45.714Z,129.47
2019-04-05T01:20:14.654Z,126.47
2019-04-05T01:22:46.288Z,120.65
2019-04-05T01:25:15.302Z,129.07
2019-04-05T01:27:44.176Z,108.72
2019-04-05T01:30:14.129Z,126.33
2019-04-05T01:32:43.079Z,117.53
2019-04-05T01:35:12.037Z,126.62
2019-04-05T01:37:41.288Z,124.95
2019-04-05T01:40:10.607Z,115.37
2019-04-05T01:42:39.762Z,123.33
2019-04-05T01:45:08.966Z,127.02
2019-04-05T01:47:37.942Z,113.68
2019-04-05T01:50:07.428Z,121.07
2019-04-05T01:52:36.600Z,116.35
2019-04-05T01:55:05.654Z,121.00
2019-04-05T01:57:34.544Z,118.85
2019-04-05T02:00:03.682Z,119.35
2019-04-05T02:02:32.713Z,126.90
2019-04-05T02:05:01.514Z,119.72
2019-04-05T02:07:30.541Z,119.33
2019-04-05T02:09:59.428Z,117.70
2019-04-05T02:12:28.396Z,127.72
2019-04-05T02:14:57.255Z,111.65
2019-04-05T02:17:26.213Z,117.35
2019-04-05T02:19:55.202Z,114.50
2019-04-05T02:22:24.066Z,122.53
2019-04-05T02:24:53.042Z,115.52
2019-04-05T02:27:21.847Z,109.52
2019-04-05T02:29:50.688Z,118.47
2019-04-05T02:32:19.646Z,120.33
2019-04-05T02:34:48.598Z,118.02
2019-04-05T02:37:17.462Z,110.35
2019-04-05T02:39:46.321Z,112.57
2019-04-05T02:42:15.807Z,106.15
2019-04-05T02:44:46.658Z,100.10
2019-04-05T02:47:15.967Z,109.97
2019-04-05T02:49:45.744Z,89.83
2019-04-05T02:52:16.992Z,104.27
2019-04-05T02:54:46.764Z,112.83
2019-04-05T02:57:16.241Z,100.60
2019-04-05T02:59:45.584Z,104.15
2019-04-05T03:02:14.933Z,101.78
2019-04-05T03:04:44.154Z,101.50
2019-04-05T03:07:14.660Z,116.65
2019-04-05T03:09:44.351Z,104.03
2019-04-05T03:12:13.589Z,117.90
2019-04-05T03:14:43.419Z,115.35
2019-04-05T03:17:12.530Z,106.15
2019-04-05T03:19:42.537Z,106.72
2019-04-05T03:22:13.892Z,106.67
2019-04-05T03:24:45.821Z,114.28
2019-04-05T03:27:27.160Z,116.10
2019-04-05T03:29:56.408Z,112.97
2019-04-05T03:32:26.016Z,105.90
2019-04-05T03:34:55.567Z,113.12
2019-04-05T03:37:24.691Z,103.17
2019-04-05T03:39:53.776Z,114.42
2019-04-05T03:42:23.027Z,111.05
2019-04-05T03:44:51.930Z,115.12
2019-04-05T03:47:20.892Z,100.92
2019-04-05T03:49:50.031Z,108.45
2019-04-05T03:52:18.900Z,110.55
2019-04-05T03:54:47.699Z,114.42
2019-04-05T03:57:16.718Z,122.87
2019-04-05T03:59:45.649Z,115.45
2019-04-05T04:02:14.537Z,117.10
2019-04-05T04:04:43.631Z,111.03
2019-04-05T04:07:12.980Z,101.75
2019-04-05T04:09:41.916Z,117.20
2019-04-05T04:12:10.733Z,108.15
2019-04-05T04:14:40.319Z,118.37
2019-04-05T04:17:12.587Z,110.68
2019-04-05T04:19:40.484Z,106.85
2019-04-05T04:22:29.811Z,107.12
2019-04-05T04:24:59.624Z,106.22
2019-04-05T04:27:29.443Z,112.57
2019-04-05T04:30:00.421Z,117.22
2019-04-05T04:32:29.818Z,117.62
2019-04-05T04:34:59.021Z,127.40
2019-04-05T04:37:28.345Z,120.20
2019-04-05T04:39:57.535Z,123.13
2019-04-05T04:42:27.111Z,119.00
2019-04-05T04:44:56.436Z,117.47
2019-04-05T04:47:27.421Z,113.57
2019-04-05T04:49:57.963Z,112.32
2019-04-05T04:52:31.040Z,106.80
2019-04-05T04:54:58.880Z,117.65
2019-04-05T04:57:29.132Z,108.87
2019-04-05T05:00:01.472Z,100.12
2019-04-05T05:02:31.011Z,99.55
2019-04-05T05:05:00.169Z,104.35
2019-04-05T05:07:29.310Z,96.53
2019-04-05T05:09:58.458Z,101.42
2019-04-05T05:12:27.551Z,109.57
2019-04-05T05:14:56.531Z,103.90
2019-04-05T05:17:37.495Z,104.35
2019-04-05T05:19:56.482Z,110.42
2019-04-05T05:22:25.783Z,98.58
2019-04-05T05:24:54.974Z,108.40
2019-04-05T05:27:24.093Z,102.35
2019-04-05T05:29:53.419Z,115.52
2019-04-05T05:32:22.596Z,120.13
2019-04-05T05:35:01.467Z,114.05
2019-04-05T05:37:28.628Z,121.13
2019-04-05T05:39:57.587Z,118.30
2019-04-05T05:42:26.579Z,132.27
2019-04-05T05:44:55.556Z,111.57
2019-04-05T05:47:24.621Z,122.58
2019-04-05T05:49:53.581Z,123.15
2019-04-05T05:52:22.904Z,120.42
2019-04-05T05:54:51.935Z,102.60
2019-04-05T05:57:21.091Z,118.00
2019-04-05T05:59:51.531Z,110.70
2019-04-05T06:02:21.113Z,116.03
2019-04-05T06:04:53.086Z,130.32
2019-04-05T06:07:22.439Z,112.57
2019-04-05T06:09:51.827Z,135.72
2019-04-05T06:12:22.536Z,126.95
2019-04-05T06:14:51.770Z,127.05
2019-04-05T06:17:22.189Z,117.95
2019-04-05T06:19:51.457Z,118.28
2019-04-05T06:22:20.626Z,118.08
2019-04-05T06:24:50.405Z,125.65
2019-04-05T06:27:19.813Z,119.28
2019-04-05T06:29:49.244Z,132.25
2019-04-05T06:32:18.271Z,123.90
2019-04-05T06:34:47.937Z,114.95
2019-04-05T06:37:17.211Z,121.37
2019-04-05T06:39:46.262Z,118.28
2019-04-05T06:42:15.712Z,106.97
2019-04-05T06:44:44.642Z,96.02
2019-04-05T06:47:32.810Z,90.42
2019-04-05T06:50:04.804Z,100.95
2019-04-05T06:52:33.901Z,98.27
2019-04-05T06:55:02.751Z,100.33
2019-04-05T06:57:31.724Z,87.57
2019-04-05T07:00:00.676Z,97.05
2019-04-05T07:02:29.614Z,100.67
2019-04-05T07:04:58.494Z,89.80
2019-04-05T07:07:27.700Z,96.45
2019-04-05T07:09:56.707Z,91.72
2019-04-05T07:12:26.483Z,95.22
2019-04-05T07:14:56.566Z,97.75
2019-04-05T07:17:25.767Z,92.30
2019-04-05T07:19:56.886Z,94.90
2019-04-05T07:22:58.747Z,94.20
2019-04-05T07:25:29.372Z,87.40
2019-04-05T07:28:17.531Z,89.07
2019-04-05T07:30:46.340Z,99.07
2019-04-05T07:33:15.329Z,91.20
2019-04-05T07:35:44.296Z,93.62
2019-04-05T07:38:13.171Z,86.65
2019-04-05T07:40:42.318Z,83.52
2019-04-05T07:43:12.146Z,86.63
2019-04-05T07:45:41.106Z,89.92
2019-04-05T07:48:10.210Z,98.42
2019-04-05T07:50:40.084Z,96.78
2019-04-05T07:53:10.785Z,83.95
2019-04-05T07:55:40.902Z,99.42
2019-04-05T07:58:10.848Z,95.05
2019-04-05T08:00:53.704Z,93.97
2019-04-05T08:03:23.933Z,80.85
2019-04-05T08:05:58.193Z,89.67
2019-04-05T08:08:51.230Z,97.02
2019-04-05T08:11:24.713Z,84.83
2019-04-05T08:13:55.984Z,88.45
2019-04-05T08:16:24.861Z,88.67
2019-04-05T08:18:58.006Z,89.05
2019-04-05T08:21:24.414Z,83.78
2019-04-05T08:23:53.213Z,79.67
2019-04-05T08:26:24.670Z,85.45
2019-04-05T08:28:55.897Z,86.28
2019-04-05T08:31:24.930Z,97.20
2019-04-05T08:33:53.825Z,89.50
2019-04-05T08:36:22.785Z,97.22
2019-04-05T08:38:51.601Z,96.28
2019-04-05T08:41:20.580Z,91.05
2019-04-05T08:43:49.349Z,88.20
2019-04-05T08:46:18.360Z,88.92
2019-04-05T08:48:47.129Z,88.62
2019-04-05T08:51:16.039Z,94.15
2019-04-05T08:54:03.956Z,90.07
2019-04-05T08:56:32.807Z,90.72
2019-04-05T08:59:01.668Z,82.95
2019-04-05T09:01:30.575Z,90.10
2019-04-05T09:03:59.336Z,88.35
2019-04-05T09:06:28.397Z,94.45
2019-04-05T09:08:57.407Z,96.47
2019-04-05T09:11:26.413Z,95.47
2019-04-05T09:13:55.256Z,94.65
2019-04-05T09:16:24.017Z,104.17
2019-04-05T09:18:53.005Z,95.40
2019-04-05T09:21:21.932Z,87.05
2019-04-05T09:23:50.884Z,96.00
2019-04-05T09:26:19.717Z,89.50
2019-04-05T09:28:48.756Z,95.70
2019-04-05T09:31:19.498Z,96.47
2019-04-05T09:33:48.742Z,95.50
2019-04-05T09:36:17.641Z,102.92
2019-04-05T09:38:46.581Z,86.32
2019-04-05T09:41:15.934Z,107.37
2019-04-05T09:43:44.946Z,95.22
2019-04-05T09:46:13.861Z,94.77
2019-04-05T09:48:43.086Z,83.47
2019-04-05T09:51:30.248Z,90.87
2019-04-05T09:53:59.460Z,83.20
2019-04-05T09:56:28.475Z,88.12
2019-04-05T09:59:18.211Z,91.53
2019-04-05T10:01:47.503Z,85.40
2019-04-05T10:04:26.881Z,87.25
2019-04-05T10:06:56.223Z,86.85
2019-04-05T10:09:25.314Z,90.67
2019-04-05T10:11:54.277Z,88.70
2019-04-05T10:14:23.168Z,89.42
2019-04-05T10:16:52.303Z,93.00
2019-04-05T10:19:21.311Z,89.42
2019-04-05T10:21:50.235Z,88.03
2019-04-05T10:24:19.440Z,85.32
2019-04-05T10:26:48.641Z,92.02
2019-04-05T10:29:50.811Z,87.80
2019-04-05T10:32:19.754Z,93.12
2019-04-05T10:34:48.782Z,92.82
2019-04-05T10:37:17.645Z,97.20
2019-04-05T10:39:46.731Z,79.25
2019-04-05T10:42:27.522Z,84.10
2019-04-05T10:44:56.490Z,79.92
2019-04-05T10:47:25.332Z,85.67
2019-04-05T10:50:03.153Z,90.67
2019-04-05T10:52:25.806Z,87.47
2019-04-05T10:54:57.769Z,84.87
2019-04-05T10:57:25.650Z,84.15
2019-04-05T10:59:54.661Z,87.22
2019-04-05T11:02:23.806Z,87.70
2019-04-05T11:04:52.598Z,85.07
2019-04-05T11:07:21.470Z,85.60
2019-04-05T11:09:53.128Z,81.05
2019-04-05T11:12:21.268Z,88.27
2019-04-05T11:14:50.099Z,77.67
2019-04-05T11:17:19.147Z,81.78
2019-04-05T11:19:47.931Z,80.28
2019-04-05T11:22:20.224Z,84.28
2019-04-05T11:24:47.326Z,81.45
2019-04-05T11:27:16.576Z,78.85
2019-04-05T11:29:45.531Z,79.47
2019-04-05T11:32:14.524Z,77.67
2019-04-05T11:34:43.604Z,79.47
2019-04-05T11:37:12.769Z,81.15
2019-04-05T11:39:41.737Z,86.53
2019-04-05T11:42:11.495Z,81.80
2019-04-05T11:44:43.059Z,78.40
2019-04-05T11:47:12.077Z,81.65
2019-04-05T11:49:42.574Z,78.35
2019-04-05T11:52:11.552Z,81.60
2019-04-05T11:54:41.216Z,76.65
2019-04-05T11:57:10.379Z,77.35
2019-04-05T11:59:39.522Z,77.40
2019-04-05T12:02:18.723Z,78.75
2019-04-05T12:04:47.963Z,75.78
2019-04-05T12:07:16.884Z,80.62
2019-04-05T12:09:45.958Z,83.50
2019-04-05T12:12:16.416Z,79.85
2019-04-05T12:14:45.383Z,78.87
2019-04-05T12:17:14.175Z,79.62
2019-04-05T12:19:43.251Z,84.15
2019-04-05T12:22:12.133Z,79.53
2019-04-05T12:24:41.105Z,87.80
2019-04-05T12:27:09.912Z,82.08
2019-04-05T12:29:39.322Z,73.35
2019-04-05T12:32:08.414Z,80.12
2019-04-05T12:34:37.521Z,83.67
2019-04-05T12:37:26.552Z,81.75
2019-04-05T12:39:55.444Z,79.17
2019-04-05T12:42:25.154Z,81.65
2019-04-05T12:44:54.141Z,74.87
2019-04-05T12:47:23.311Z,74.30
2019-04-05T12:49:52.881Z,75.42
2019-04-05T12:52:23.211Z,80.87
2019-04-05T12:54:54.858Z,71.02
2019-04-05T12:57:23.088Z,75.70
2019-04-05T12:59:53.714Z,85.38
2019-04-05T13:02:32.934Z,74.75
2019-04-05T13:04:53.133Z,73.28
2019-04-05T13:07:22.882Z,70.40
2019-04-05T13:09:55.007Z,67.05
2019-04-05T13:12:26.152Z,67.25
2019-04-05T13:14:59.607Z,81.32
2019-04-05T13:17:25.313Z,68.80
2019-04-05T13:19:54.249Z,67.85
2019-04-05T13:22:23.676Z,70.05
2019-04-05T13:24:52.574Z,73.83
2019-04-05T13:27:21.529Z,71.55
2019-04-05T13:29:50.442Z,71.70
2019-04-05T13:32:21.564Z,70.00
2019-04-05T13:34:49.951Z,74.95
2019-04-05T13:37:20.370Z,67.03
2019-04-05T13:39:49.396Z,73.70
2019-04-05T13:42:18.508Z,77.30
2019-04-05T13:44:48.373Z,74.85
2019-04-05T13:47:17.225Z,76.50
2019-04-05T13:49:46.231Z,89.72
2019-04-05T13:52:15.085Z,87.82
2019-04-05T13:54:44.130Z,91.08
2019-04-05T13:57:13.146Z,86.08
2019-04-05T13:59:44.597Z,95.35
2019-04-05T14:02:20.724Z,88.90
2019-04-05T14:04:47.594Z,93.90
2019-04-05T14:07:16.581Z,92.45
2019-04-05T14:09:45.639Z,101.92
2019-04-05T14:12:18.855Z,94.67
2019-04-05T14:14:51.317Z,99.45
2019-04-05T14:17:18.729Z,102.35
2019-04-05T14:19:48.769Z,91.40
2019-04-05T14:22:18.362Z,93.50
2019-04-05T14:24:47.298Z,95.28
2019-04-05T14:27:16.077Z,101.20
2019-04-05T14:29:47.689Z,98.30
2019-04-05T14:32:21.253Z,96.67
2019-04-05T14:34:46.931Z,90.97
2019-04-05T14:37:15.861Z,93.05
2019-04-05T14:39:44.874Z,92.82
2019-04-05T14:42:14.720Z,93.40
2019-04-05T14:44:44.490Z,93.00
2019-04-05T14:47:13.919Z,93.58
2019-04-05T14:49:43.011Z,87.97
2019-04-05T14:52:12.038Z,94.60
2019-04-05T14:54:43.168Z,91.10
2019-04-05T14:57:11.507Z,89.52
2019-04-05T14:59:40.462Z,94.83
2019-04-05T15:02:10.350Z,87.27
2019-04-05T15:04:39.557Z,98.75
2019-04-05T15:07:08.482Z,85.50
2019-04-05T15:09:37.514Z,93.50
2019-04-05T15:12:07.221Z,86.90
2019-04-05T15:14:36.279Z,81.78
2019-04-05T15:17:05.237Z,87.53
2019-04-05T15:19:34.216Z,85.60
2019-04-05T15:22:05.839Z,87.47
2019-04-05T15:24:34.658Z,86.32
2019-04-05T15:27:03.767Z,94.67
2019-04-05T15:29:32.939Z,91.60
2019-04-05T15:32:02.423Z,92.62
2019-04-05T15:34:31.248Z,102.35
2019-04-05T15:37:01.540Z,89.77
2019-04-05T15:39:31.415Z,88.90
2019-04-05T15:42:01.301Z,87.02
2019-04-05T15:44:30.447Z,91.60
2019-04-05T15:46:59.608Z,98.33
2019-04-05T15:49:28.582Z,87.37
2019-04-05T15:52:00.527Z,89.25
2019-04-05T15:54:33.190Z,93.75
2019-04-05T15:57:01.460Z,94.83
2019-04-05T15:59:33.291Z,105.90
2019-04-05T16:02:03.917Z,94.77
2019-04-05T16:04:32.986Z,92.60
2019-04-05T16:07:02.220Z,89.32
2019-04-05T16:09:31.964Z,85.12
2019-04-05T16:12:20.248Z,90.62
2019-04-05T16:14:49.428Z,79.53
2019-04-05T16:17:18.487Z,98.55
2019-04-05T16:19:47.573Z,85.38
2019-04-05T16:22:16.450Z,83.85
2019-04-05T16:24:45.403Z,82.70
2019-04-05T16:27:14.450Z,84.80
2019-04-05T16:29:43.305Z,88.05
2019-04-05T16:32:12.208Z,82.55
2019-04-05T16:34:41.097Z,89.50
2019-04-05T16:37:09.916Z,89.20
2019-04-05T16:39:38.823Z,84.40
2019-04-05T16:42:10.216Z,91.00
2019-04-05T16:44:38.466Z,87.57
2019-04-05T16:47:07.442Z,81.72
2019-04-05T16:49:36.497Z,86.72
2019-04-05T16:52:06.066Z,80.17
2019-04-05T16:54:35.034Z,79.75
2019-04-05T16:57:04.251Z,81.12
2019-04-05T16:59:33.145Z,74.47
2019-04-05T17:02:02.093Z,71.53
2019-04-05T17:04:31.088Z,74.42
2019-04-05T17:06:59.931Z,78.85
2019-04-05T17:09:28.789Z,77.92
2019-04-05T17:11:57.730Z,77.30
2019-04-05T17:14:27.115Z,77.47
2019-04-05T17:16:56.108Z,66.85
2019-04-05T17:19:24.892Z,68.83
2019-04-05T17:21:53.838Z,73.87
2019-04-05T17:24:22.848Z,73.85
2019-04-05T17:26:52.001Z,69.75
2019-04-05T17:29:21.523Z,70.35
2019-04-05T17:31:50.558Z,67.70
2019-04-05T17:34:21.313Z,81.75
2019-04-05T17:36:50.328Z,72.10
2019-04-05T17:39:19.567Z,76.80
2019-04-05T17:41:48.766Z,66.70
2019-04-05T17:44:25.218Z,65.32
2019-04-05T17:46:54.318Z,72.78
2019-04-05T17:49:23.284Z,74.10
2019-04-05T17:51:52.448Z,69.22
2019-04-05T17:54:21.387Z,78.92
2019-04-05T17:56:50.525Z,69.07
2019-04-05T17:59:19.859Z,70.32
2019-04-05T18:06:41.786Z,80.25
2019-04-05T18:09:14.917Z,68.17
2019-04-05T18:15:51.507Z,73.50
2019-04-05T18:19:26.997Z,80.30
2019-04-05T18:26:05.369Z,72.40
2019-04-05T18:32:10.595Z,73.28
2019-04-05T18:34:42.139Z,73.75
2019-04-05T18:37:51.927Z,77.12
2019-04-05T18:40:25.963Z,68.80
2019-04-05T18:43:52.338Z,73.95
2019-04-05T18:46:23.826Z,82.27
2019-04-05T18:48:53.296Z,65.55
2019-04-05T18:51:24.800Z,74.58
2019-04-05T18:53:54.144Z,77.22
2019-04-05T18:56:25.309Z,70.87
2019-04-05T18:59:16.159Z,75.83
2019-04-05T19:02:09.216Z,74.95
2019-04-05T19:04:40.218Z,70.22
2019-04-05T19:07:36.847Z,82.65
2019-04-05T19:10:09.677Z,77.67
2019-04-05T19:12:39.269Z,71.00
2019-04-05T19:15:09.347Z,66.30
2019-04-05T19:17:45.421Z,70.95
2019-04-05T19:21:05.013Z,71.40
2019-04-05T19:24:15.954Z,80.28
2019-04-05T19:26:56.050Z,77.70
2019-04-05T19:29:45.135Z,79.97
2019-04-05T19:49:16.922Z,79.80
2019-04-05T19:52:54.462Z,76.95
2019-04-05T19:55:26.275Z,68.67
2019-04-05T20:01:03.214Z,69.27
2019-04-05T20:03:32.603Z,71.28
2019-04-05T20:06:07.955Z,64.00
2019-04-05T20:08:37.109Z,75.37
2019-04-05T20:11:18.057Z,74.65
2019-04-05T20:13:51.190Z,70.90
2019-04-05T20:16:20.230Z,70.03
2019-04-05T20:18:49.401Z,68.28
2019-04-05T20:21:18.575Z,69.60
2019-04-05T20:23:48.002Z,68.65
2019-04-05T20:29:28.056Z,73.83
2019-04-05T20:32:17.173Z,67.15
2019-04-05T20:34:48.047Z,67.97
2019-04-05T20:37:17.892Z,73.35
2019-04-05T20:39:47.054Z,73.37
2019-04-05T20:42:16.117Z,68.83
2019-04-05T20:44:45.208Z,64.40
2019-04-05T20:47:16.055Z,72.72
2019-04-05T20:49:45.086Z,68.52
2019-04-05T20:52:13.986Z,66.55
2019-04-05T20:54:42.978Z,66.30
2019-04-05T20:57:11.940Z,67.27
2019-04-05T20:59:41.054Z,63.25
2019-04-05T21:02:19.979Z,63.42
2019-04-05T21:05:25.329Z,78.00
2019-04-05T21:07:51.788Z,62.03
2019-04-05T21:10:43.742Z,68.33
2019-04-05T21:13:17.875Z,64.87
2019-04-05T21:15:56.263Z,73.35
2019-04-05T21:18:28.469Z,63.80
2019-04-05T21:20:58.664Z,63.08
2019-04-05T21:23:28.552Z,63.90
2019-04-05T21:26:00.572Z,72.00
2019-04-05T21:28:33.008Z,74.42
2019-04-05T21:31:17.834Z,69.12
2019-04-05T21:33:40.880Z,77.50
2019-04-05T21:36:13.763Z,73.87
2019-04-05T21:38:44.472Z,81.10
2019-04-05T21:41:14.012Z,73.55
2019-04-05T21:44:04.128Z,80.65
2019-04-05T21:46:38.427Z,80.03
2019-04-05T21:49:14.034Z,73.52
2019-04-05T21:51:46.750Z,78.02
2019-04-05T21:54:23.783Z,78.52
2019-04-05T21:57:00.541Z,78.85
2019-04-05T22:00:20.524Z,87.33
2019-04-05T22:02:50.029Z,72.37
2019-04-05T22:05:26.581Z,69.45
2019-04-05T22:08:09.401Z,82.88
2019-04-05T22:10:43.326Z,70.72
2019-04-05T22:13:13.003Z,81.30
2019-04-05T22:15:47.886Z,77.82
2019-04-05T22:18:36.602Z,89.03
2019-04-05T22:21:06.393Z,84.87
2019-04-05T22:23:36.067Z,77.47
2019-04-05T22:26:05.346Z,93.65
2019-04-05T22:28:34.707Z,85.10
2019-04-05T22:31:04.099Z,94.10
2019-04-05T22:33:33.361Z,88.62
2019-04-05T22:38:51.972Z,82.42
2019-04-05T22:41:21.650Z,93.35
2019-04-05T22:44:39.021Z,93.72
2019-04-05T22:47:38.137Z,88.00
2019-04-05T22:54:02.630Z,87.10
2019-04-05T22:56:39.533Z,88.03
2019-04-05T22:59:08.785Z,95.45
2019-04-05T23:01:38.154Z,101.35
2019-04-05T23:04:07.216Z,94.32
2019-04-05T23:06:36.868Z,96.05
2019-04-05T23:09:09.266Z,87.57
2019-04-05T23:11:38.506Z,103.10
2019-04-05T23:14:10.491Z,87.47
2019-04-05T23:16:39.884Z,95.30
2019-04-05T23:19:09.009Z,95.75
2019-04-05T23:21:37.981Z,105.15
2019-04-05T23:24:06.895Z,86.08
2019-04-05T23:26:35.762Z,93.78
2019-04-05T23:29:04.733Z,93.15
2019-04-05T23:31:33.721Z,96.12
2019-04-05T23:34:02.744Z,101.42
2019-04-05T23:36:32.586Z,103.92
2019-04-05T23:39:01.526Z,97.78
2019-04-05T23:41:30.495Z,103.27
2019-04-05T23:43:59.433Z,103.27
2019-04-05T23:46:28.328Z,102.92
2019-04-05T23:48:58.158Z,114.10
2019-04-05T23:51:27.129Z,101.10
2019-04-05T23:54:02.243Z,103.60
